Time;durP1;ratioP1;P1;durP2;ratioP2;P2;SDS_P1;SDS_P2;PMS_P1;PMS_P2;Temp;Humidity;BMP_temperature;BMP_pressure;BME280_temperature;BME280_humidity;BME280_pressure;Samples;Min_cycle;Max_cycle;Signal;HPM_P1;HPM_P2
2021/01/05 00:02:11;;;;;;;73.93;40.40;;;7.60;99.90;;;;;;5109445;28;20589;-80
2021/01/05 00:04:55;;;;;;;73.80;40.80;;;7.60;99.90;;;;;;5108468;28;20171;-80
2021/01/05 00:08:13;;;;;;;63.90;37.55;;;7.60;99.90;;;;;;5110606;28;20180;-80
2021/01/05 00:13:56;;;;;;;64.18;35.40;;;7.60;99.90;;;;;;5116099;28;20898;-81
2021/01/05 00:16:36;;;;;;;63.97;36.88;;;7.60;99.90;;;;;;5117774;27;20175;-80
2021/01/05 00:19:21;;;;;;;66.55;38.63;;;7.60;99.90;;;;;;5117411;27;20183;-80
2021/01/05 00:21:51;;;;;;;57.20;35.85;;;7.60;99.90;;;;;;5117252;28;20682;-81
2021/01/05 00:24:38;;;;;;;59.03;37.20;;;7.60;99.90;;;;;;5118139;27;20539;-81
2021/01/05 00:27:10;;;;;;;57.90;34.17;;;7.60;99.90;;;;;;5118031;28;20680;-80
2021/01/05 00:29:50;;;;;;;63.13;35.45;;;7.60;99.90;;;;;;5116098;28;20195;-81
2021/01/05 00:35:35;;;;;;;59.92;36.28;;;7.60;99.90;;;;;;5117568;28;20171;-81
2021/01/05 00:38:43;;;;;;;64.80;35.58;;;7.60;99.90;;;;;;5115801;28;20682;-80
2021/01/05 00:41:33;;;;;;;65.95;34.60;;;7.60;99.90;;;;;;5116388;28;20183;-81
2021/01/05 00:44:14;;;;;;;68.15;37.67;;;7.50;99.90;;;;;;5117209;28;20164;-81
2021/01/05 00:46:49;;;;;;;62.88;35.97;;;7.50;99.90;;;;;;5118157;27;20180;-81
2021/01/05 00:52:29;;;;;;;66.35;36.75;;;7.60;99.90;;;;;;5116807;28;20179;-81
2021/01/05 00:55:16;;;;;;;70.88;39.55;;;7.50;99.90;;;;;;5115013;28;20247;-80
2021/01/05 00:57:53;;;;;;;75.15;38.78;;;7.50;99.90;;;;;;5117814;28;20493;-80
2021/01/05 01:04:08;;;;;;;65.90;36.10;;;7.60;99.90;;;;;;5117141;28;20197;-80
2021/01/05 01:06:49;;;;;;;69.50;38.80;;;7.60;99.90;;;;;;5116103;28;20644;-80
2021/01/05 01:09:39;;;;;;;61.22;34.10;;;7.60;99.90;;;;;;5116732;27;20195;-81
2021/01/05 01:12:23;;;;;;;58.63;33.83;;;7.50;99.90;;;;;;5117999;27;20266;-80
2021/01/05 01:15:07;;;;;;;63.28;35.63;;;7.50;99.90;;;;;;5115926;28;20164;-80
2021/01/05 01:18:28;;;;;;;59.40;37.10;;;7.60;99.90;;;;;;5117048;27;20184;-81
2021/01/05 01:21:05;;;;;;;60.15;35.88;;;7.50;99.90;;;;;;5117068;28;20507;-81
2021/01/05 01:24:23;;;;;;;53.85;32.20;;;7.50;99.90;;;;;;5117037;27;20156;-81
2021/01/05 01:26:58;;;;;;;58.65;34.70;;;7.50;99.90;;;;;;5112949;28;20233;-81
2021/01/05 01:29:33;;;;;;;69.13;37.28;;;7.50;99.90;;;;;;5112980;28;20195;-81
2021/01/05 01:32:29;;;;;;;63.08;36.38;;;7.40;99.90;;;;;;5111085;28;20274;-81
2021/01/05 01:35:23;;;;;;;68.85;37.85;;;7.50;99.90;;;;;;5112431;27;20176;-81
2021/01/05 01:38:25;;;;;;;64.82;37.00;;;7.40;99.90;;;;;;5111464;28;20180;-81
2021/01/05 01:41:18;;;;;;;70.65;38.72;;;7.40;99.90;;;;;;5112043;28;20183;-81
2021/01/05 01:44:01;;;;;;;62.38;36.90;;;7.40;99.90;;;;;;5111410;28;20706;-81
2021/01/05 01:49:53;;;;;;;76.72;40.05;;;7.40;99.90;;;;;;5111138;28;20690;-81
2021/01/05 01:52:56;;;;;;;65.15;38.08;;;7.30;99.90;;;;;;5111574;28;20567;-81
2021/01/05 01:56:09;;;;;;;74.45;39.25;;;7.30;99.90;;;;;;5110064;28;20227;-81
2021/01/05 02:02:41;;;;;;;78.68;42.17;;;7.30;99.90;;;;;;5111374;28;20197;-81
2021/01/05 02:05:57;;;;;;;81.57;43.08;;;7.30;99.90;;;;;;5110355;28;20179;-81
2021/01/05 02:08:50;;;;;;;85.28;43.03;;;7.40;99.90;;;;;;5111467;28;20286;-81
2021/01/05 02:11:56;;;;;;;79.72;42.83;;;7.30;99.90;;;;;;5111606;28;20198;-80
2021/01/05 02:15:02;;;;;;;76.72;41.25;;;7.30;99.90;;;;;;5111091;28;20234;-80
2021/01/05 02:21:17;;;;;;;76.60;42.25;;;7.30;99.90;;;;;;5111709;28;20728;-80
2021/01/05 02:27:19;;;;;;;79.80;40.38;;;7.30;99.90;;;;;;5111727;28;20525;-81
2021/01/05 02:29:54;;;;;;;76.93;42.70;;;7.30;99.90;;;;;;5111484;28;20219;-81
2021/01/05 02:33:05;;;;;;;79.45;42.92;;;7.40;99.90;;;;;;5109822;28;20515;-80
2021/01/05 02:39:39;;;;;;;85.35;45.95;;;7.20;99.90;;;;;;5110988;28;20179;-80
2021/01/05 02:42:54;;;;;;;103.00;54.47;;;7.20;99.90;;;;;;5110404;28;20179;-81
2021/01/05 02:45:48;;;;;;;117.60;58.83;;;7.20;99.90;;;;;;5112511;28;20179;-81
2021/01/05 02:52:05;;;;;;;107.57;56.85;;;7.20;99.90;;;;;;5111559;28;20183;-80
2021/01/05 02:58:30;;;;;;;101.65;51.40;;;7.10;99.90;;;;;;5111796;28;20194;-80
2021/01/05 03:01:36;;;;;;;108.18;54.00;;;7.10;99.90;;;;;;5111600;28;20186;-80
2021/01/05 03:07:31;;;;;;;85.38;45.40;;;7.20;99.90;;;;;;5111699;28;20182;-81
2021/01/05 03:10:34;;;;;;;88.68;46.70;;;7.20;99.90;;;;;;5110025;28;20285;-81
2021/01/05 03:13:22;;;;;;;86.03;46.40;;;7.10;99.90;;;;;;5109930;28;20185;-81
2021/01/05 03:16:28;;;;;;;97.45;52.15;;;7.00;99.90;;;;;;5110675;28;20667;-81
2021/01/05 03:19:34;;;;;;;92.05;47.75;;;7.00;99.90;;;;;;5109827;28;20191;-81
2021/01/05 03:22:23;;;;;;;100.32;51.58;;;7.10;99.90;;;;;;5110126;28;20412;-81
2021/01/05 03:25:04;;;;;;;96.32;48.22;;;7.00;99.90;;;;;;5109365;28;20195;-81
2021/01/05 03:28:19;;;;;;;94.60;49.55;;;7.00;99.90;;;;;;5110178;28;20560;-81
2021/01/05 03:31:24;;;;;;;99.07;49.10;;;7.10;99.90;;;;;;5109299;28;20299;-81
2021/01/05 03:33:58;;;;;;;90.57;48.80;;;7.10;99.90;;;;;;5110622;28;20168;-81
2021/01/05 03:36:46;;;;;;;83.68;46.95;;;6.90;99.90;;;;;;5106976;28;20270;-81
2021/01/05 03:39:48;;;;;;;90.13;46.53;;;7.00;99.90;;;;;;5109142;28;20184;-80
2021/01/05 03:42:22;;;;;;;91.07;48.92;;;7.00;99.90;;;;;;5108222;28;20183;-81
2021/01/05 03:48:27;;;;;;;77.50;41.88;;;7.00;99.90;;;;;;5109605;28;20229;-82
2021/01/05 03:51:36;;;;;;;75.43;46.28;;;7.00;99.90;;;;;;5108410;28;20282;-81
2021/01/05 03:54:35;;;;;;;75.63;46.05;;;7.00;99.90;;;;;;5109338;28;20183;-81
2021/01/05 03:57:53;;;;;;;76.95;44.65;;;7.00;99.90;;;;;;5110595;28;20221;-81
2021/01/05 04:00:46;;;;;;;69.18;42.88;;;7.00;99.90;;;;;;5109034;28;20211;-81
2021/01/05 04:06:35;;;;;;;73.97;43.90;;;6.90;99.90;;;;;;5110371;28;20681;-81
2021/01/05 04:15:39;;;;;;;78.65;45.83;;;6.80;99.90;;;;;;5110671;28;20655;-81
2021/01/05 04:18:14;;;;;;;76.30;51.53;;;6.80;99.90;;;;;;5111832;28;20247;-81
2021/01/05 04:30:17;;;;;;;73.50;42.55;;;6.60;99.90;;;;;;5114605;28;20214;-80
2021/01/05 04:32:52;;;;;;;82.10;44.55;;;6.60;99.90;;;;;;5111124;28;20188;-80
2021/01/05 04:35:19;;;;;;;81.47;45.50;;;6.70;99.90;;;;;;5110834;28;20171;-80
2021/01/05 04:38:37;;;;;;;76.72;42.92;;;6.60;99.90;;;;;;5113217;28;20624;-80
2021/01/05 04:41:30;;;;;;;78.20;42.30;;;6.60;99.90;;;;;;5111921;28;20689;-80
2021/01/05 04:47:40;;;;;;;73.10;38.40;;;6.70;99.90;;;;;;5112608;28;20194;-81
2021/01/05 04:50:55;;;;;;;69.10;44.38;;;6.60;99.90;;;;;;5114763;28;20175;-80
2021/01/05 05:04:15;;;;;;;64.90;40.28;;;6.80;99.90;;;;;;5115048;28;20179;-80
2021/01/05 05:13:37;;;;;;;74.80;40.42;;;6.70;99.90;;;;;;5116025;28;20167;-80
2021/01/05 05:16:39;;;;;;;67.47;35.95;;;6.70;99.90;;;;;;5116847;28;20213;-80
2021/01/05 05:19:42;;;;;;;69.30;40.28;;;6.90;99.90;;;;;;5117800;28;20186;-81
2021/01/05 05:22:46;;;;;;;69.72;38.70;;;6.80;99.90;;;;;;5118112;28;20259;-80
2021/01/05 05:25:41;;;;;;;68.95;39.30;;;6.90;99.90;;;;;;5115298;28;20266;-80
2021/01/05 05:28:40;;;;;;;68.60;40.65;;;6.80;99.90;;;;;;5114858;28;20208;-80
2021/01/05 05:31:26;;;;;;;65.63;36.40;;;6.90;99.90;;;;;;5116320;28;20239;-80
2021/01/05 05:34:21;;;;;;;68.35;37.95;;;7.20;99.90;;;;;;5115634;28;20159;-80
2021/01/05 05:40:26;;;;;;;69.50;37.58;;;7.50;99.00;;;;;;5113227;28;20308;-80
2021/01/05 05:43:42;;;;;;;70.45;37.30;;;7.50;98.70;;;;;;5115501;28;20188;-80
2021/01/05 05:46:54;;;;;;;63.53;36.17;;;7.50;98.70;;;;;;5115759;28;20180;-80
2021/01/05 05:53:15;;;;;;;73.35;38.85;;;7.90;97.50;;;;;;5114916;28;20232;-80
2021/01/05 05:56:28;;;;;;;67.40;36.58;;;8.10;96.90;;;;;;5112596;28;20263;-80
2021/01/05 06:02:17;;;;;;;74.72;39.00;;;8.10;96.90;;;;;;5115075;28;20524;-80
2021/01/05 06:08:28;;;;;;;75.53;40.85;;;6.90;99.40;;;;;;5115251;28;20689;-80
2021/01/05 06:11:28;;;;;;;71.07;38.35;;;6.80;99.90;;;;;;5113355;28;20629;-80
2021/01/05 06:14:09;;;;;;;66.95;36.67;;;6.70;99.90;;;;;;5113907;28;20171;-80
2021/01/05 06:17:09;;;;;;;67.47;37.15;;;6.60;99.90;;;;;;5115942;28;20176;-80
2021/01/05 06:19:52;;;;;;;61.33;37.95;;;6.40;99.90;;;;;;5115351;28;20164;-80
2021/01/05 06:22:48;;;;;;;65.03;36.67;;;6.40;99.90;;;;;;5116302;28;20201;-81
2021/01/05 06:25:45;;;;;;;65.78;40.22;;;6.20;99.90;;;;;;5116951;28;20167;-80
2021/01/05 06:28:32;;;;;;;75.35;41.72;;;6.30;99.90;;;;;;5115501;28;20208;-80
2021/01/05 06:31:24;;;;;;;64.57;34.88;;;6.20;99.90;;;;;;5115067;28;20171;-80
2021/01/05 06:34:33;;;;;;;59.13;33.42;;;6.20;99.90;;;;;;5114650;28;20182;-80
2021/01/05 06:37:19;;;;;;;57.63;33.03;;;6.20;99.90;;;;;;5091620;28;20176;-79
2021/01/05 06:39:57;;;;;;;62.20;34.97;;;6.20;99.90;;;;;;5113035;28;20284;-80
2021/01/05 06:42:49;;;;;;;55.65;31.42;;;6.10;99.90;;;;;;5114051;28;20708;-80
2021/01/05 06:48:24;;;;;;;58.20;36.38;;;6.20;99.90;;;;;;5114283;28;20245;-80
2021/01/05 06:54:08;;;;;;;66.35;36.45;;;6.10;99.90;;;;;;5114033;28;20175;-80
2021/01/05 06:57:17;;;;;;;56.13;32.63;;;6.10;99.90;;;;;;5112438;28;20237;-80
2021/01/05 07:00:07;;;;;;;56.00;32.90;;;6.10;99.90;;;;;;5113398;28;20620;-79
2021/01/05 07:03:10;;;;;;;65.13;36.15;;;6.00;99.90;;;;;;5108755;28;20192;-79
2021/01/05 07:09:00;;;;;;;62.30;33.70;;;6.00;99.90;;;;;;5109514;28;20248;-79
2021/01/05 07:12:03;;;;;;;57.78;32.40;;;6.10;99.90;;;;;;5110778;28;20183;-79
2021/01/05 07:14:53;;;;;;;60.05;33.50;;;6.00;99.90;;;;;;5111337;28;20568;-79
2021/01/05 07:17:52;;;;;;;59.20;35.70;;;6.00;99.90;;;;;;5112852;28;20209;-80
2021/01/05 07:23:35;;;;;;;58.85;31.08;;;5.90;99.90;;;;;;5107342;28;20187;-79
2021/01/05 07:29:16;;;;;;;53.80;29.20;;;5.90;99.90;;;;;;5111634;28;20583;-79
2021/01/05 07:35:13;;;;;;;55.55;31.95;;;5.80;99.90;;;;;;5113033;28;20190;-79
2021/01/05 07:38:21;;;;;;;58.53;32.90;;;5.80;99.90;;;;;;5110761;28;20188;-79
2021/01/05 07:40:52;;;;;;;67.75;36.05;;;5.90;99.90;;;;;;5100268;28;20188;-80
2021/01/05 07:43:17;;;;;;;55.65;29.60;;;5.90;99.90;;;;;;5093287;28;20609;-79
2021/01/05 07:45:43;;;;;;;63.13;36.93;;;5.90;99.90;;;;;;5106367;28;20206;-80
2021/01/05 07:48:26;;;;;;;59.47;32.63;;;5.90;99.90;;;;;;5101129;28;20207;-79
2021/01/05 07:50:55;;;;;;;56.03;30.15;;;5.80;99.90;;;;;;5106255;28;20241;-79
2021/01/05 07:53:20;;;;;;;56.47;32.20;;;5.90;99.90;;;;;;5102106;28;20209;-79
2021/01/05 07:55:46;;;;;;;56.73;33.47;;;5.80;99.90;;;;;;5107234;28;20224;-79
2021/01/05 07:58:11;;;;;;;55.27;31.50;;;6.00;99.90;;;;;;5089010;28;20591;-79
2021/01/05 08:00:40;;;;;;;66.40;34.90;;;6.00;99.90;;;;;;5105586;28;20582;-79
2021/01/05 08:03:05;;;;;;;55.88;32.08;;;6.00;99.90;;;;;;5105885;28;20183;-80
2021/01/05 08:05:34;;;;;;;56.70;32.73;;;5.90;99.90;;;;;;5105540;28;20309;-79
2021/01/05 08:08:00;;;;;;;57.58;30.08;;;6.00;99.90;;;;;;5106651;28;20192;-80
2021/01/05 08:10:29;;;;;;;53.87;30.97;;;6.00;99.90;;;;;;5104610;28;20184;-80
2021/01/05 08:12:59;;;;;;;57.97;31.58;;;6.10;99.90;;;;;;5109082;28;20207;-81
2021/01/05 08:15:26;;;;;;;54.65;30.45;;;6.00;99.90;;;;;;5101728;28;20199;-80
2021/01/05 08:17:52;;;;;;;50.17;28.52;;;6.00;99.90;;;;;;5102746;28;20234;-80
2021/01/05 08:20:20;;;;;;;54.80;29.90;;;6.00;99.90;;;;;;5097376;28;20177;-79
2021/01/05 08:22:46;;;;;;;57.42;33.75;;;6.00;99.90;;;;;;5094451;28;20231;-79
2021/01/05 08:25:16;;;;;;;49.77;27.90;;;5.90;99.90;;;;;;5107533;28;20208;-80
2021/01/05 08:27:52;;;;;;;48.42;28.45;;;5.90;99.90;;;;;;5107454;28;20203;-80
2021/01/05 08:30:19;;;;;;;54.10;29.38;;;5.90;99.90;;;;;;5104209;28;20249;-80
2021/01/05 08:32:50;;;;;;;54.95;31.92;;;5.90;99.90;;;;;;5110982;28;20180;-81
2021/01/05 08:35:19;;;;;;;51.78;28.17;;;5.80;99.90;;;;;;5107586;28;20214;-80
2021/01/05 08:37:48;;;;;;;62.25;34.45;;;5.70;99.90;;;;;;5109459;28;20184;-80
2021/01/05 08:40:17;;;;;;;60.55;35.97;;;5.80;99.90;;;;;;5108302;28;20609;-80
2021/01/05 08:42:46;;;;;;;49.72;28.35;;;5.80;99.90;;;;;;5097531;28;20180;-81
2021/01/05 08:45:15;;;;;;;56.83;34.20;;;5.70;99.90;;;;;;5113506;28;20579;-81
2021/01/05 08:47:48;;;;;;;68.38;33.83;;;5.70;99.90;;;;;;5112563;28;20648;-80
2021/01/05 08:50:21;;;;;;;87.28;39.35;;;5.70;99.90;;;;;;5096207;28;20180;-81
2021/01/05 08:52:47;;;;;;;58.65;32.80;;;5.60;99.90;;;;;;5094139;28;20192;-80
2021/01/05 08:55:15;;;;;;;58.93;32.57;;;5.70;99.90;;;;;;5094918;28;20646;-80
2021/01/05 08:57:40;;;;;;;54.25;29.17;;;5.70;99.90;;;;;;5094291;28;20671;-80
2021/01/05 09:00:07;;;;;;;50.60;29.53;;;5.50;99.90;;;;;;5095666;28;20181;-81
2021/01/05 09:02:35;;;;;;;56.20;31.45;;;5.50;99.90;;;;;;5107739;28;20180;-81
2021/01/05 09:05:04;;;;;;;47.22;26.15;;;5.50;99.90;;;;;;5109762;28;20735;-80
2021/01/05 09:07:30;;;;;;;45.13;23.95;;;5.60;99.90;;;;;;5097092;28;20191;-80
2021/01/05 09:10:01;;;;;;;48.30;27.37;;;5.60;99.90;;;;;;5095775;28;20204;-80
2021/01/05 09:12:34;;;;;;;43.95;23.33;;;5.60;99.90;;;;;;5104357;28;20180;-80
2021/01/05 09:15:00;;;;;;;44.33;25.42;;;5.70;99.90;;;;;;5109249;28;20181;-80
2021/01/05 09:17:26;;;;;;;44.70;24.38;;;5.70;99.90;;;;;;5109234;28;20182;-80
2021/01/05 09:19:51;;;;;;;45.47;25.73;;;5.70;99.90;;;;;;5109768;28;20185;-81
2021/01/05 09:22:24;;;;;;;45.27;24.33;;;5.70;99.80;;;;;;5098446;28;20226;-80
2021/01/05 09:24:50;;;;;;;41.67;23.75;;;5.60;99.90;;;;;;5108575;28;20189;-79
2021/01/05 09:27:16;;;;;;;46.33;25.42;;;5.60;99.90;;;;;;5091933;28;20263;-79
2021/01/05 09:29:42;;;;;;;48.07;27.37;;;5.70;99.90;;;;;;5091437;28;20296;-79
2021/01/05 09:32:08;;;;;;;69.80;41.85;;;5.70;99.90;;;;;;5095555;28;20837;-79
2021/01/05 09:34:34;;;;;;;50.83;24.87;;;5.70;99.90;;;;;;5094605;28;20234;-80
2021/01/05 09:36:59;;;;;;;50.13;27.20;;;5.70;99.90;;;;;;5094355;28;20659;-79
2021/01/05 09:39:25;;;;;;;49.53;28.60;;;5.70;99.90;;;;;;5108640;28;20670;-80
2021/01/05 09:42:00;;;;;;;53.40;26.33;;;5.60;99.90;;;;;;5107724;28;20183;-80
2021/01/05 09:44:26;;;;;;;49.40;25.92;;;5.70;99.90;;;;;;5101273;28;20646;-80
2021/01/05 09:46:53;;;;;;;48.53;25.73;;;5.70;99.90;;;;;;5099794;28;20637;-80
2021/01/05 09:49:19;;;;;;;50.95;26.27;;;5.80;99.90;;;;;;5106429;28;20273;-81
2021/01/05 09:51:45;;;;;;;46.67;25.60;;;5.80;99.90;;;;;;5097769;28;20644;-80
2021/01/05 09:54:14;;;;;;;51.10;26.80;;;5.80;99.90;;;;;;5108084;28;20493;-79
2021/01/05 09:56:41;;;;;;;44.92;25.05;;;5.80;99.90;;;;;;5099825;28;20452;-79
2021/01/05 09:59:06;;;;;;;39.47;22.52;;;6.00;99.90;;;;;;5112511;28;20211;-80
2021/01/05 10:01:33;;;;;;;49.00;28.20;;;6.00;99.80;;;;;;5099843;28;20238;-80
2021/01/05 10:03:59;;;;;;;42.28;23.67;;;5.90;99.80;;;;;;5098688;28;20184;-79
2021/01/05 10:06:33;;;;;;;39.10;22.17;;;5.90;99.80;;;;;;5103197;28;20180;-80
2021/01/05 10:08:59;;;;;;;40.78;22.45;;;5.80;99.90;;;;;;5091464;28;20208;-80
2021/01/05 10:11:32;;;;;;;38.78;23.83;;;5.90;99.60;;;;;;5097154;28;20176;-80
2021/01/05 10:13:58;;;;;;;42.03;25.05;;;6.00;99.90;;;;;;5111716;28;20262;-80
2021/01/05 10:16:24;;;;;;;40.27;21.37;;;6.00;99.70;;;;;;5097530;28;20271;-80
2021/01/05 10:18:49;;;;;;;43.70;26.43;;;6.00;99.60;;;;;;5095510;28;20756;-80
2021/01/05 10:21:15;;;;;;;36.23;20.33;;;5.90;99.70;;;;;;5096871;28;20178;-81
2021/01/05 10:23:41;;;;;;;33.30;21.40;;;5.90;99.50;;;;;;5101404;28;20179;-80
2021/01/05 10:26:08;;;;;;;41.20;21.67;;;6.00;99.40;;;;;;5100234;28;20206;-81
2021/01/05 10:28:34;;;;;;;42.20;22.20;;;6.00;99.50;;;;;;5098158;28;20609;-81
2021/01/05 10:31:00;;;;;;;31.43;18.70;;;6.00;99.60;;;;;;5099531;28;20696;-81
2021/01/05 10:33:27;;;;;;;38.73;22.37;;;6.00;99.50;;;;;;5104549;28;20566;-80
2021/01/05 10:35:53;;;;;;;62.38;37.25;;;6.00;99.90;;;;;;5100307;28;20475;-81
2021/01/05 10:38:19;;;;;;;78.30;48.93;;;6.00;99.40;;;;;;5099065;28;20175;-80
2021/01/05 10:40:45;;;;;;;40.60;23.00;;;5.90;99.50;;;;;;5100211;28;20195;-80
2021/01/05 10:43:10;;;;;;;49.33;27.97;;;5.80;99.70;;;;;;5092343;28;20192;-80
2021/01/05 10:45:40;;;;;;;33.33;17.73;;;5.70;99.90;;;;;;5092024;28;20180;-81
2021/01/05 10:48:06;;;;;;;29.60;18.10;;;5.80;99.20;;;;;;5092828;28;20184;-80
2021/01/05 10:50:32;;;;;;;31.83;18.42;;;5.90;99.20;;;;;;5099354;28;20176;-80
2021/01/05 10:52:58;;;;;;;36.20;21.17;;;6.10;98.50;;;;;;5101536;28;20203;-80
2021/01/05 10:55:23;;;;;;;31.63;18.20;;;6.10;99.10;;;;;;5097642;28;20457;-80
2021/01/05 10:57:50;;;;;;;33.83;18.30;;;6.20;99.20;;;;;;5101788;28;20593;-81
2021/01/05 11:00:18;;;;;;;38.13;23.90;;;6.30;98.50;;;;;;5105107;28;20177;-80
2021/01/05 11:02:44;;;;;;;27.33;20.25;;;6.20;98.70;;;;;;5112833;28;20192;-80
2021/01/05 11:05:15;;;;;;;32.80;21.37;;;6.20;98.40;;;;;;5103637;28;20229;-80
2021/01/05 11:07:48;;;;;;;27.60;16.63;;;6.20;98.50;;;;;;5111556;28;20427;-81
2021/01/05 11:10:14;;;;;;;32.28;18.60;;;6.30;98.70;;;;;;5102601;28;20185;-80
2021/01/05 11:12:39;;;;;;;32.37;18.30;;;6.50;98.30;;;;;;5107458;28;20696;-79
2021/01/05 11:15:05;;;;;;;37.57;21.13;;;6.50;97.80;;;;;;5106268;28;20181;-79
2021/01/05 11:17:31;;;;;;;24.67;15.50;;;6.40;98.60;;;;;;5109478;28;20179;-79
2021/01/05 11:19:56;;;;;;;26.30;16.87;;;6.40;98.20;;;;;;5106644;28;20407;-79
2021/01/05 11:22:22;;;;;;;26.80;16.27;;;6.50;98.00;;;;;;5091337;28;20180;-79
2021/01/05 11:24:48;;;;;;;23.63;15.10;;;6.40;97.50;;;;;;5109209;28;20671;-79
2021/01/05 11:27:15;;;;;;;23.63;13.60;;;6.40;97.90;;;;;;5091493;28;20596;-79
2021/01/05 11:29:42;;;;;;;23.08;14.60;;;6.50;98.00;;;;;;5088248;28;20597;-79
2021/01/05 11:32:14;;;;;;;23.98;14.43;;;6.60;97.60;;;;;;5096937;28;20585;-79
2021/01/05 11:34:40;;;;;;;25.92;15.93;;;6.70;96.80;;;;;;5109416;28;20561;-79
2021/01/05 11:37:15;;;;;;;25.73;14.00;;;6.70;96.60;;;;;;5089000;28;20261;-79
2021/01/05 11:39:42;;;;;;;34.65;19.50;;;6.70;97.10;;;;;;5106522;28;20195;-79
2021/01/05 11:42:10;;;;;;;38.00;28.17;;;6.90;97.60;;;;;;5089338;28;20188;-79
2021/01/05 11:44:39;;;;;;;28.15;16.90;;;7.00;97.50;;;;;;5087434;28;20746;-80
2021/01/05 11:47:06;;;;;;;22.48;13.55;;;7.00;97.00;;;;;;5092214;28;20184;-80
2021/01/05 11:49:31;;;;;;;21.98;14.25;;;7.10;96.10;;;;;;5111661;28;20214;-80
2021/01/05 11:51:57;;;;;;;21.70;15.00;;;6.90;96.60;;;;;;5089405;28;20642;-80
2021/01/05 11:54:27;;;;;;;20.20;12.23;;;6.90;96.70;;;;;;5105811;28;20691;-80
2021/01/05 11:56:59;;;;;;;24.35;15.00;;;6.90;96.40;;;;;;5100720;28;20198;-80
2021/01/05 11:59:28;;;;;;;29.25;19.58;;;6.90;96.80;;;;;;5109331;28;20270;-80
2021/01/05 12:01:55;;;;;;;48.78;30.45;;;6.90;97.10;;;;;;5098153;28;20188;-80
2021/01/05 12:04:20;;;;;;;29.77;19.73;;;7.00;97.50;;;;;;5104193;28;20193;-79
2021/01/05 12:06:51;;;;;;;36.80;25.57;;;7.00;96.80;;;;;;5094189;28;20655;-80
2021/01/05 12:09:20;;;;;;;48.67;37.72;;;7.00;97.00;;;;;;5105523;28;20211;-79
2021/01/05 12:11:58;;;;;;;26.98;18.40;;;7.00;97.30;;;;;;5095687;28;20707;-79
2021/01/05 12:14:42;;;;;;;22.70;14.25;;;6.70;97.00;;;;;;5110804;28;20191;-79
2021/01/05 12:17:08;;;;;;;27.40;15.23;;;6.80;96.90;;;;;;5090122;28;20656;-80
2021/01/05 12:19:41;;;;;;;26.00;18.17;;;6.70;96.80;;;;;;5106265;28;20194;-79
2021/01/05 12:22:13;;;;;;;28.73;18.17;;;6.70;97.30;;;;;;5090490;28;20271;-79
2021/01/05 12:24:44;;;;;;;30.15;19.00;;;6.80;97.60;;;;;;5088854;28;20537;-79
2021/01/05 12:27:13;;;;;;;25.27;15.82;;;6.80;97.60;;;;;;5087308;28;20272;-80
2021/01/05 12:29:43;;;;;;;30.65;16.83;;;6.80;96.80;;;;;;5090744;28;20293;-80
2021/01/05 12:32:24;;;;;;;24.55;14.95;;;6.80;96.80;;;;;;5099438;28;20188;-79
2021/01/05 12:34:51;;;;;;;26.63;16.85;;;6.60;96.50;;;;;;5091292;28;20305;-79
2021/01/05 12:37:23;;;;;;;21.27;13.60;;;6.30;96.80;;;;;;5097841;28;20190;-79
2021/01/05 12:39:52;;;;;;;22.55;13.40;;;6.40;96.80;;;;;;5092293;28;20192;-80
2021/01/05 12:42:26;;;;;;;23.55;15.55;;;6.50;96.90;;;;;;5102273;28;20551;-80
2021/01/05 12:44:58;;;;;;;34.90;22.45;;;6.50;97.10;;;;;;5104792;28;20521;-80
2021/01/05 12:47:27;;;;;;;32.03;18.77;;;6.50;97.00;;;;;;5097964;28;20236;-80
2021/01/05 12:49:56;;;;;;;28.55;17.52;;;6.60;97.10;;;;;;5106768;28;20229;-80
2021/01/05 12:52:22;;;;;;;26.17;17.30;;;6.50;96.70;;;;;;5093155;28;20221;-80
2021/01/05 12:54:48;;;;;;;29.67;20.70;;;6.50;96.70;;;;;;5109530;28;20227;-79
2021/01/05 12:57:17;;;;;;;29.00;20.70;;;6.40;97.10;;;;;;5095065;28;20256;-80
2021/01/05 12:59:47;;;;;;;34.05;22.63;;;6.20;97.40;;;;;;5106208;28;20188;-80
2021/01/05 13:02:21;;;;;;;34.05;21.67;;;6.00;97.90;;;;;;5104933;28;20197;-80
2021/01/05 13:04:48;;;;;;;35.28;19.00;;;5.90;98.60;;;;;;5092832;28;20188;-80
2021/01/05 13:07:18;;;;;;;28.40;18.63;;;6.10;98.30;;;;;;5096813;28;20184;-80
2021/01/05 13:09:44;;;;;;;85.20;44.25;;;6.00;97.70;;;;;;5098584;28;20269;-80
2021/01/05 13:12:19;;;;;;;44.88;28.55;;;6.00;98.10;;;;;;5105277;28;20196;-80
2021/01/05 13:14:44;;;;;;;51.58;39.33;;;6.00;98.10;;;;;;5108346;28;20562;-80
2021/01/05 13:17:10;;;;;;;42.63;28.40;;;5.90;97.70;;;;;;5089261;28;20191;-80
2021/01/05 13:19:36;;;;;;;51.27;35.40;;;5.90;98.00;;;;;;5092189;28;20184;-80
2021/01/05 13:22:04;;;;;;;55.27;33.47;;;5.90;98.00;;;;;;5094339;28;20180;-80
2021/01/05 13:24:31;;;;;;;38.50;25.60;;;5.70;98.30;;;;;;5093039;28;20181;-80
2021/01/05 13:26:59;;;;;;;35.22;22.55;;;5.70;98.40;;;;;;5092391;28;20268;-80
2021/01/05 13:29:30;;;;;;;38.20;23.83;;;5.70;98.60;;;;;;5092849;28;20200;-80
2021/01/05 13:32:03;;;;;;;32.03;24.33;;;5.80;98.50;;;;;;5090849;28;20184;-80
2021/01/05 13:34:33;;;;;;;35.70;23.00;;;6.00;97.90;;;;;;5090963;28;20215;-80
2021/01/05 13:37:04;;;;;;;38.03;27.20;;;6.10;97.80;;;;;;5092161;28;20176;-80
2021/01/05 13:39:30;;;;;;;30.75;21.10;;;6.10;97.40;;;;;;5100664;28;20211;-80
2021/01/05 13:42:02;;;;;;;34.37;23.33;;;6.20;97.30;;;;;;5104239;28;20215;-80
2021/01/05 13:44:27;;;;;;;32.80;21.98;;;6.20;97.10;;;;;;5112895;28;20424;-80
2021/01/05 13:46:59;;;;;;;35.57;22.30;;;6.10;97.30;;;;;;5091964;28;20184;-80
2021/01/05 13:49:25;;;;;;;39.95;22.33;;;6.10;97.50;;;;;;5091021;28;20216;-80
2021/01/05 13:51:52;;;;;;;31.52;20.25;;;6.10;98.00;;;;;;5092161;28;20176;-80
2021/01/05 13:54:26;;;;;;;38.60;23.02;;;6.10;97.70;;;;;;5090527;28;20180;-80
2021/01/05 13:56:59;;;;;;;37.10;24.00;;;6.10;97.80;;;;;;5089305;28;20328;-80
2021/01/05 13:59:24;;;;;;;40.38;23.60;;;6.20;98.20;;;;;;5109495;28;20655;-80
2021/01/05 14:02:05;;;;;;;35.30;23.70;;;6.30;98.10;;;;;;5099097;27;20191;-80
2021/01/05 14:04:31;;;;;;;33.08;18.02;;;6.20;98.10;;;;;;5111585;28;20405;-80
2021/01/05 14:07:11;;;;;;;32.33;20.92;;;6.10;97.70;;;;;;5091060;28;20177;-80
2021/01/05 14:09:37;;;;;;;37.38;22.67;;;6.10;97.80;;;;;;5092634;28;20590;-80
2021/01/05 14:12:06;;;;;;;38.78;24.80;;;6.10;97.80;;;;;;5106984;28;20225;-80
2021/01/05 14:14:40;;;;;;;34.40;22.55;;;6.00;97.90;;;;;;5114113;27;20628;-80
2021/01/05 14:17:27;;;;;;;37.10;24.23;;;6.00;98.00;;;;;;5093799;28;20554;-81
2021/01/05 14:19:56;;;;;;;32.63;19.88;;;5.90;98.20;;;;;;5112648;28;20278;-81
2021/01/05 14:22:27;;;;;;;34.58;23.05;;;5.70;98.40;;;;;;5112591;28;20184;-80
2021/01/05 14:24:52;;;;;;;33.05;21.42;;;5.60;98.50;;;;;;5107337;28;20184;-81
2021/01/05 14:27:18;;;;;;;30.50;21.20;;;5.70;98.50;;;;;;5089772;28;20237;-81
2021/01/05 14:29:47;;;;;;;31.45;18.23;;;5.80;97.80;;;;;;5096438;28;20602;-81
2021/01/05 14:32:15;;;;;;;29.75;18.88;;;5.90;97.70;;;;;;5098439;28;20188;-81
2021/01/05 14:34:45;;;;;;;34.33;21.60;;;5.80;97.60;;;;;;5106772;28;20179;-81
2021/01/05 14:37:19;;;;;;;26.75;17.42;;;5.80;97.50;;;;;;5092922;28;20173;-81
2021/01/05 14:39:45;;;;;;;31.80;21.08;;;5.90;97.30;;;;;;5105818;28;20601;-81
2021/01/05 14:42:11;;;;;;;30.38;18.15;;;5.90;97.50;;;;;;5092827;28;20176;-81
2021/01/05 14:44:44;;;;;;;29.92;21.52;;;5.90;97.50;;;;;;5088123;28;20192;-80
2021/01/05 14:47:15;;;;;;;37.17;24.88;;;5.80;97.60;;;;;;5091314;28;20187;-80
2021/01/05 14:49:42;;;;;;;31.20;20.20;;;5.80;97.70;;;;;;5107195;28;20215;-81
2021/01/05 14:52:16;;;;;;;33.17;22.02;;;5.80;97.80;;;;;;5097301;28;20186;-81
2021/01/05 14:54:42;;;;;;;34.45;23.08;;;5.90;97.90;;;;;;5099018;28;20607;-80
2021/01/05 14:57:08;;;;;;;33.10;21.23;;;5.90;97.90;;;;;;5102125;28;20176;-80
2021/01/05 14:59:38;;;;;;;32.67;20.42;;;5.90;97.90;;;;;;5110793;27;20191;-80
2021/01/05 15:02:10;;;;;;;43.95;30.35;;;5.70;98.00;;;;;;5093061;28;20217;-80
2021/01/05 15:04:50;;;;;;;28.77;19.52;;;5.60;98.40;;;;;;5110507;28;20650;-81
2021/01/05 15:07:16;;;;;;;31.63;21.70;;;5.40;98.40;;;;;;5102468;28;20190;-81
2021/01/05 15:09:42;;;;;;;34.58;29.17;;;5.50;98.20;;;;;;5106855;28;20226;-81
2021/01/05 15:12:14;;;;;;;37.97;25.53;;;5.60;98.10;;;;;;5089285;28;20185;-80
2021/01/05 15:14:42;;;;;;;43.08;28.38;;;5.60;98.00;;;;;;5090700;28;20221;-81
2021/01/05 15:17:08;;;;;;;41.63;31.13;;;5.60;97.80;;;;;;5088858;28;20249;-81
2021/01/05 15:19:33;;;;;;;46.20;34.40;;;5.70;98.10;;;;;;5092508;28;20404;-81
2021/01/05 15:22:02;;;;;;;33.17;22.23;;;5.70;98.10;;;;;;5107370;28;20187;-80
2021/01/05 15:24:30;;;;;;;46.35;31.73;;;5.70;98.10;;;;;;5108421;28;20443;-80